sensor_id;sensor_type;location;lat;lon;timestamp;temperature;humidity
16980;DHT22;42288;52.182;21.156;2022-12-07T00:00:26;5.20;99.60
16980;DHT22;42288;52.182;21.156;2022-12-07T00:02:52;5.40;99.50
16980;DHT22;42288;52.182;21.156;2022-12-07T00:05:17;5.00;99.10
16980;DHT22;42288;52.182;21.156;2022-12-07T00:07:43;5.10;99.70
16980;DHT22;42288;52.182;21.156;2022-12-07T00:10:08;5.20;99.50
16980;DHT22;42288;52.182;21.156;2022-12-07T00:12:34;5.20;99.60
16980;DHT22;42288;52.182;21.156;2022-12-07T00:14:59;5.00;99.50
16980;DHT22;42288;52.182;21.156;2022-12-07T00:17:25;5.20;99.70
16980;DHT22;42288;52.182;21.156;2022-12-07T00:19:50;5.30;99.50
16980;DHT22;42288;52.182;21.156;2022-12-07T00:22:16;5.10;99.10
16980;DHT22;42288;52.182;21.156;2022-12-07T00:24:41;4.70;99.60
16980;DHT22;42288;52.182;21.156;2022-12-07T00:27:07;4.50;99.90
16980;DHT22;42288;52.182;21.156;2022-12-07T00:29:32;4.50;99.90
16980;DHT22;42288;52.182;21.156;2022-12-07T00:31:58;4.30;99.90
16980;DHT22;42288;52.182;21.156;2022-12-07T00:34:23;4.20;99.90
16980;DHT22;42288;52.182;21.156;2022-12-07T00:36:49;4.00;99.90
16980;DHT22;42288;52.182;21.156;2022-12-07T00:39:15;4.40;99.90
16980;DHT22;42288;52.182;21.156;2022-12-07T00:41:40;4.10;99.90
16980;DHT22;42288;52.182;21.156;2022-12-07T00:44:06;4.00;99.90
16980;DHT22;42288;52.182;21.156;2022-12-07T00:46:31;3.70;99.90
16980;DHT22;42288;52.182;21.156;2022-12-07T00:48:57;4.00;99.90
16980;DHT22;42288;52.182;21.156;2022-12-07T00:51:24;4.10;99.90
16980;DHT22;42288;52.182;21.156;2022-12-07T00:53:50;4.00;99.90
16980;DHT22;42288;52.182;21.156;2022-12-07T00:56:22;4.10;99.90
16980;DHT22;42288;52.182;21.156;2022-12-07T00:59:02;4.00;99.90
16980;DHT22;42288;52.182;21.156;2022-12-07T01:01:30;3.90;99.90
16980;DHT22;42288;52.182;21.156;2022-12-07T01:03:56;4.00;99.90
16980;DHT22;42288;52.182;21.156;2022-12-07T01:06:23;3.80;99.90
16980;DHT22;42288;52.182;21.156;2022-12-07T01:08:49;4.00;99.90
16980;DHT22;42288;52.182;21.156;2022-12-07T01:11:19;4.20;99.90
16980;DHT22;42288;52.182;21.156;2022-12-07T01:13:45;4.40;99.90
16980;DHT22;42288;52.182;21.156;2022-12-07T01:16:13;4.50;99.90
16980;DHT22;42288;52.182;21.156;2022-12-07T01:18:39;4.20;99.90
16980;DHT22;42288;52.182;21.156;2022-12-07T01:21:08;4.40;99.90
16980;DHT22;42288;52.182;21.156;2022-12-07T01:23:34;4.30;99.90
16980;DHT22;42288;52.182;21.156;2022-12-07T01:26:06;4.40;99.90
16980;DHT22;42288;52.182;21.156;2022-12-07T01:28:32;4.20;99.90
16980;DHT22;42288;52.182;21.156;2022-12-07T01:31:00;3.90;99.90
16980;DHT22;42288;52.182;21.156;2022-12-07T01:33:28;3.90;99.90
16980;DHT22;42288;52.182;21.156;2022-12-07T01:35:54;3.90;99.90
16980;DHT22;42288;52.182;21.156;2022-12-07T01:38:19;3.90;99.90
16980;DHT22;42288;52.182;21.156;2022-12-07T01:40:45;3.90;99.90
16980;DHT22;42288;52.182;21.156;2022-12-07T01:43:16;4.00;99.90
16980;DHT22;42288;52.182;21.156;2022-12-07T01:45:43;4.30;99.90
16980;DHT22;42288;52.182;21.156;2022-12-07T01:48:11;4.60;99.90
16980;DHT22;42288;52.182;21.156;2022-12-07T01:50:39;4.90;99.90
16980;DHT22;42288;52.182;21.156;2022-12-07T01:53:06;5.00;99.90
16980;DHT22;42288;52.182;21.156;2022-12-07T01:55:34;4.90;99.90
16980;DHT22;42288;52.182;21.156;2022-12-07T01:58:02;5.00;99.90
16980;DHT22;42288;52.182;21.156;2022-12-07T02:00:28;4.90;99.90
16980;DHT22;42288;52.182;21.156;2022-12-07T02:03:00;5.00;99.90
16980;DHT22;42288;52.182;21.156;2022-12-07T02:05:27;5.20;99.90
16980;DHT22;42288;52.182;21.156;2022-12-07T02:07:55;5.40;99.90
16980;DHT22;42288;52.182;21.156;2022-12-07T02:10:25;5.40;99.90
16980;DHT22;42288;52.182;21.156;2022-12-07T02:12:55;5.60;99.90
16980;DHT22;42288;52.182;21.156;2022-12-07T02:15:27;5.70;99.90
16980;DHT22;42288;52.182;21.156;2022-12-07T02:18:06;5.70;99.90
16980;DHT22;42288;52.182;21.156;2022-12-07T02:23:40;5.80;99.90
16980;DHT22;42288;52.182;21.156;2022-12-07T02:32:08;5.70;99.90
16980;DHT22;42288;52.182;21.156;2022-12-07T02:37:24;5.60;99.90
16980;DHT22;42288;52.182;21.156;2022-12-07T02:40:02;5.30;99.90
16980;DHT22;42288;52.182;21.156;2022-12-07T02:42:38;5.60;99.90
16980;DHT22;42288;52.182;21.156;2022-12-07T02:45:07;5.60;99.90
16980;DHT22;42288;52.182;21.156;2022-12-07T02:47:34;5.40;99.90
16980;DHT22;42288;52.182;21.156;2022-12-07T02:50:04;5.50;99.90
16980;DHT22;42288;52.182;21.156;2022-12-07T02:52:30;5.60;99.90
16980;DHT22;42288;52.182;21.156;2022-12-07T02:54:56;5.50;99.90
16980;DHT22;42288;52.182;21.156;2022-12-07T03:00:07;5.50;99.90
16980;DHT22;42288;52.182;21.156;2022-12-07T03:02:59;5.60;99.90
16980;DHT22;42288;52.182;21.156;2022-12-07T03:11:32;5.60;99.90
16980;DHT22;42288;52.182;21.156;2022-12-07T03:14:06;5.50;99.90
16980;DHT22;42288;52.182;21.156;2022-12-07T03:16:42;5.40;99.90
16980;DHT22;42288;52.182;21.156;2022-12-07T03:19:16;5.40;99.90
16980;DHT22;42288;52.182;21.156;2022-12-07T03:21:47;5.30;99.90
16980;DHT22;42288;52.182;21.156;2022-12-07T03:24:18;5.30;99.90
16980;DHT22;42288;52.182;21.156;2022-12-07T03:26:49;5.00;99.90
16980;DHT22;42288;52.182;21.156;2022-12-07T03:29:26;5.10;99.90
16980;DHT22;42288;52.182;21.156;2022-12-07T03:32:12;5.20;99.90
16980;DHT22;42288;52.182;21.156;2022-12-07T03:34:47;5.20;99.90
16980;DHT22;42288;52.182;21.156;2022-12-07T03:37:31;5.10;99.90
16980;DHT22;42288;52.182;21.156;2022-12-07T03:40:13;5.10;99.90
16980;DHT22;42288;52.182;21.156;2022-12-07T03:42:41;5.30;99.90
16980;DHT22;42288;52.182;21.156;2022-12-07T03:45:07;5.30;99.90
16980;DHT22;42288;52.182;21.156;2022-12-07T03:47:37;5.30;99.90
16980;DHT22;42288;52.182;21.156;2022-12-07T03:50:13;5.10;99.90
16980;DHT22;42288;52.182;21.156;2022-12-07T03:57:47;5.10;99.90
16980;DHT22;42288;52.182;21.156;2022-12-07T04:00:15;5.10;99.90
16980;DHT22;42288;52.182;21.156;2022-12-07T04:02:41;5.00;99.90
16980;DHT22;42288;52.182;21.156;2022-12-07T04:05:07;5.00;99.90
16980;DHT22;42288;52.182;21.156;2022-12-07T04:07:33;4.90;99.90
16980;DHT22;42288;52.182;21.156;2022-12-07T04:09:59;4.90;99.90
16980;DHT22;42288;52.182;21.156;2022-12-07T04:12:24;4.80;99.90
16980;DHT22;42288;52.182;21.156;2022-12-07T04:14:50;4.70;99.90
16980;DHT22;42288;52.182;21.156;2022-12-07T04:17:15;4.80;99.90
16980;DHT22;42288;52.182;21.156;2022-12-07T04:19:41;4.80;99.90
16980;DHT22;42288;52.182;21.156;2022-12-07T04:22:07;4.70;99.90
16980;DHT22;42288;52.182;21.156;2022-12-07T04:24:33;4.80;99.90
16980;DHT22;42288;52.182;21.156;2022-12-07T04:26:59;4.60;99.90
16980;DHT22;42288;52.182;21.156;2022-12-07T04:29:25;4.60;99.90
16980;DHT22;42288;52.182;21.156;2022-12-07T04:31:51;4.60;99.90
16980;DHT22;42288;52.182;21.156;2022-12-07T04:34:16;4.70;99.90
16980;DHT22;42288;52.182;21.156;2022-12-07T04:36:43;5.10;99.90
16980;DHT22;42288;52.182;21.156;2022-12-07T04:39:21;5.00;99.90
16980;DHT22;42288;52.182;21.156;2022-12-07T04:41:48;4.70;99.90
16980;DHT22;42288;52.182;21.156;2022-12-07T04:44:14;4.70;99.90
16980;DHT22;42288;52.182;21.156;2022-12-07T04:46:40;4.70;99.90
16980;DHT22;42288;52.182;21.156;2022-12-07T04:49:06;4.90;99.90
16980;DHT22;42288;52.182;21.156;2022-12-07T04:51:32;5.00;99.90
16980;DHT22;42288;52.182;21.156;2022-12-07T04:53:57;4.90;99.90
16980;DHT22;42288;52.182;21.156;2022-12-07T04:56:23;4.90;99.90
16980;DHT22;42288;52.182;21.156;2022-12-07T04:58:50;4.80;99.90
16980;DHT22;42288;52.182;21.156;2022-12-07T05:01:17;4.80;99.90
16980;DHT22;42288;52.182;21.156;2022-12-07T05:03:43;4.70;99.90
16980;DHT22;42288;52.182;21.156;2022-12-07T05:06:10;5.00;99.90
16980;DHT22;42288;52.182;21.156;2022-12-07T05:08:36;4.90;99.90
16980;DHT22;42288;52.182;21.156;2022-12-07T05:11:02;4.70;99.90
16980;DHT22;42288;52.182;21.156;2022-12-07T05:13:28;4.60;99.90
16980;DHT22;42288;52.182;21.156;2022-12-07T05:15:53;4.80;99.90
16980;DHT22;42288;52.182;21.156;2022-12-07T05:18:19;4.80;99.90
16980;DHT22;42288;52.182;21.156;2022-12-07T05:20:45;4.90;99.90
16980;DHT22;42288;52.182;21.156;2022-12-07T05:23:11;4.70;99.90
16980;DHT22;42288;52.182;21.156;2022-12-07T05:25:36;4.80;99.90
16980;DHT22;42288;52.182;21.156;2022-12-07T05:28:03;4.80;99.90
16980;DHT22;42288;52.182;21.156;2022-12-07T05:30:28;4.80;99.90
16980;DHT22;42288;52.182;21.156;2022-12-07T05:32:55;4.70;99.90
16980;DHT22;42288;52.182;21.156;2022-12-07T05:35:20;4.60;99.90
16980;DHT22;42288;52.182;21.156;2022-12-07T05:37:46;4.50;99.90
16980;DHT22;42288;52.182;21.156;2022-12-07T05:40:12;4.50;99.90
16980;DHT22;42288;52.182;21.156;2022-12-07T05:42:39;4.40;99.90
16980;DHT22;42288;52.182;21.156;2022-12-07T05:45:05;4.30;99.90
16980;DHT22;42288;52.182;21.156;2022-12-07T05:47:30;4.40;99.90
16980;DHT22;42288;52.182;21.156;2022-12-07T05:49:56;4.50;99.90
16980;DHT22;42288;52.182;21.156;2022-12-07T05:52:22;4.40;99.90
16980;DHT22;42288;52.182;21.156;2022-12-07T05:54:47;4.30;99.90
16980;DHT22;42288;52.182;21.156;2022-12-07T05:57:13;4.20;99.90
16980;DHT22;42288;52.182;21.156;2022-12-07T05:59:39;4.20;99.90
16980;DHT22;42288;52.182;21.156;2022-12-07T06:02:08;4.50;99.90
16980;DHT22;42288;52.182;21.156;2022-12-07T06:04:36;4.40;99.90
16980;DHT22;42288;52.182;21.156;2022-12-07T06:07:02;4.70;99.90
16980;DHT22;42288;52.182;21.156;2022-12-07T06:09:29;4.60;99.90
16980;DHT22;42288;52.182;21.156;2022-12-07T06:11:56;4.40;99.90
16980;DHT22;42288;52.182;21.156;2022-12-07T06:14:40;4.50;99.90
16980;DHT22;42288;52.182;21.156;2022-12-07T06:17:06;4.40;99.90
16980;DHT22;42288;52.182;21.156;2022-12-07T06:19:32;4.40;99.90
16980;DHT22;42288;52.182;21.156;2022-12-07T06:21:58;4.40;99.90
16980;DHT22;42288;52.182;21.156;2022-12-07T06:24:24;4.50;99.90
16980;DHT22;42288;52.182;21.156;2022-12-07T06:26:49;4.40;99.90
16980;DHT22;42288;52.182;21.156;2022-12-07T06:29:17;4.30;99.90
16980;DHT22;42288;52.182;21.156;2022-12-07T06:31:42;4.40;99.90
16980;DHT22;42288;52.182;21.156;2022-12-07T06:34:17;4.50;99.90
16980;DHT22;42288;52.182;21.156;2022-12-07T06:36:43;4.60;99.90
16980;DHT22;42288;52.182;21.156;2022-12-07T06:39:09;4.50;99.90
16980;DHT22;42288;52.182;21.156;2022-12-07T06:41:36;4.60;99.90
16980;DHT22;42288;52.182;21.156;2022-12-07T06:44:03;4.50;99.90
16980;DHT22;42288;52.182;21.156;2022-12-07T06:46:29;4.40;99.90
16980;DHT22;42288;52.182;21.156;2022-12-07T06:48:55;4.40;99.90
16980;DHT22;42288;52.182;21.156;2022-12-07T06:51:20;4.40;99.90
16980;DHT22;42288;52.182;21.156;2022-12-07T06:53:46;4.30;99.90
16980;DHT22;42288;52.182;21.156;2022-12-07T06:56:11;4.20;99.90
16980;DHT22;42288;52.182;21.156;2022-12-07T06:58:37;4.20;99.90
16980;DHT22;42288;52.182;21.156;2022-12-07T07:01:07;4.30;99.90
16980;DHT22;42288;52.182;21.156;2022-12-07T07:03:33;4.40;99.90
16980;DHT22;42288;52.182;21.156;2022-12-07T07:05:58;4.60;99.90
16980;DHT22;42288;52.182;21.156;2022-12-07T07:08:24;4.40;99.90
16980;DHT22;42288;52.182;21.156;2022-12-07T07:10:50;4.30;99.90
16980;DHT22;42288;52.182;21.156;2022-12-07T07:13:15;4.50;99.90
16980;DHT22;42288;52.182;21.156;2022-12-07T07:15:41;4.50;99.90
16980;DHT22;42288;52.182;21.156;2022-12-07T07:18:07;4.80;99.90
16980;DHT22;42288;52.182;21.156;2022-12-07T07:20:32;4.80;99.90
16980;DHT22;42288;52.182;21.156;2022-12-07T07:22:58;4.50;99.90
16980;DHT22;42288;52.182;21.156;2022-12-07T07:25:24;4.80;99.90
16980;DHT22;42288;52.182;21.156;2022-12-07T07:27:49;4.50;99.90
16980;DHT22;42288;52.182;21.156;2022-12-07T07:30:15;4.70;99.90
16980;DHT22;42288;52.182;21.156;2022-12-07T07:32:40;4.70;99.90
16980;DHT22;42288;52.182;21.156;2022-12-07T07:35:06;4.40;99.90
16980;DHT22;42288;52.182;21.156;2022-12-07T07:37:31;4.50;99.90
16980;DHT22;42288;52.182;21.156;2022-12-07T07:39:57;4.40;99.90
16980;DHT22;42288;52.182;21.156;2022-12-07T07:42:22;4.70;99.90
16980;DHT22;42288;52.182;21.156;2022-12-07T07:44:48;4.60;99.90
16980;DHT22;42288;52.182;21.156;2022-12-07T07:47:13;4.60;99.90
16980;DHT22;42288;52.182;21.156;2022-12-07T07:49:39;4.60;99.90
16980;DHT22;42288;52.182;21.156;2022-12-07T07:52:05;4.70;99.90
16980;DHT22;42288;52.182;21.156;2022-12-07T07:54:31;4.50;99.90
16980;DHT22;42288;52.182;21.156;2022-12-07T07:56:57;4.80;99.90
16980;DHT22;42288;52.182;21.156;2022-12-07T07:59:23;4.60;99.90
16980;DHT22;42288;52.182;21.156;2022-12-07T08:01:48;5.00;99.90
16980;DHT22;42288;52.182;21.156;2022-12-07T08:04:14;4.90;99.90
16980;DHT22;42288;52.182;21.156;2022-12-07T08:06:39;4.90;99.90
16980;DHT22;42288;52.182;21.156;2022-12-07T08:09:07;4.70;99.90
16980;DHT22;42288;52.182;21.156;2022-12-07T08:11:33;4.70;99.90
16980;DHT22;42288;52.182;21.156;2022-12-07T08:13:59;4.80;99.90
16980;DHT22;42288;52.182;21.156;2022-12-07T08:16:25;4.80;99.90
16980;DHT22;42288;52.182;21.156;2022-12-07T08:18:50;4.70;99.90
16980;DHT22;42288;52.182;21.156;2022-12-07T08:21:16;4.90;99.90
16980;DHT22;42288;52.182;21.156;2022-12-07T08:23:41;4.70;99.90
16980;DHT22;42288;52.182;21.156;2022-12-07T08:26:10;4.90;99.90
16980;DHT22;42288;52.182;21.156;2022-12-07T08:28:36;4.70;99.90
16980;DHT22;42288;52.182;21.156;2022-12-07T08:31:05;4.70;99.90
16980;DHT22;42288;52.182;21.156;2022-12-07T08:33:31;4.80;99.90
16980;DHT22;42288;52.182;21.156;2022-12-07T08:36:01;5.00;99.90
16980;DHT22;42288;52.182;21.156;2022-12-07T08:38:27;4.80;99.90
16980;DHT22;42288;52.182;21.156;2022-12-07T08:40:56;4.80;99.90
16980;DHT22;42288;52.182;21.156;2022-12-07T08:43:22;5.00;99.90
16980;DHT22;42288;52.182;21.156;2022-12-07T08:46:10;5.10;99.90
16980;DHT22;42288;52.182;21.156;2022-12-07T08:48:42;5.20;99.90
16980;DHT22;42288;52.182;21.156;2022-12-07T08:51:09;4.70;99.90
16980;DHT22;42288;52.182;21.156;2022-12-07T08:53:36;4.70;99.90
16980;DHT22;42288;52.182;21.156;2022-12-07T08:56:03;4.80;99.90
16980;DHT22;42288;52.182;21.156;2022-12-07T08:58:29;4.80;99.90
16980;DHT22;42288;52.182;21.156;2022-12-07T09:00:54;4.90;99.90
16980;DHT22;42288;52.182;21.156;2022-12-07T09:03:20;4.80;99.90
16980;DHT22;42288;52.182;21.156;2022-12-07T09:05:45;4.80;99.90
16980;DHT22;42288;52.182;21.156;2022-12-07T09:08:11;4.90;99.90
16980;DHT22;42288;52.182;21.156;2022-12-07T09:10:37;5.00;99.90
16980;DHT22;42288;52.182;21.156;2022-12-07T09:13:02;5.20;99.90
16980;DHT22;42288;52.182;21.156;2022-12-07T09:15:29;5.40;99.90
16980;DHT22;42288;52.182;21.156;2022-12-07T09:17:54;5.30;99.90
16980;DHT22;42288;52.182;21.156;2022-12-07T09:20:21;5.20;99.90
16980;DHT22;42288;52.182;21.156;2022-12-07T09:22:47;5.30;99.90
16980;DHT22;42288;52.182;21.156;2022-12-07T09:25:12;5.30;99.90
16980;DHT22;42288;52.182;21.156;2022-12-07T09:27:38;5.40;99.90
16980;DHT22;42288;52.182;21.156;2022-12-07T09:30:05;5.40;99.90
16980;DHT22;42288;52.182;21.156;2022-12-07T09:32:30;5.50;99.90
16980;DHT22;42288;52.182;21.156;2022-12-07T09:34:56;5.50;99.90
16980;DHT22;42288;52.182;21.156;2022-12-07T09:37:22;5.60;99.90
16980;DHT22;42288;52.182;21.156;2022-12-07T09:39:48;5.60;99.90
16980;DHT22;42288;52.182;21.156;2022-12-07T09:42:37;5.70;99.90
16980;DHT22;42288;52.182;21.156;2022-12-07T09:45:07;5.50;99.90
16980;DHT22;42288;52.182;21.156;2022-12-07T09:47:37;5.60;99.90
16980;DHT22;42288;52.182;21.156;2022-12-07T09:50:15;5.60;99.90
16980;DHT22;42288;52.182;21.156;2022-12-07T09:52:42;5.60;99.90
16980;DHT22;42288;52.182;21.156;2022-12-07T09:55:13;5.90;99.90
16980;DHT22;42288;52.182;21.156;2022-12-07T09:57:39;5.70;99.90
16980;DHT22;42288;52.182;21.156;2022-12-07T10:00:16;5.80;99.90
16980;DHT22;42288;52.182;21.156;2022-12-07T10:02:48;5.90;99.90
16980;DHT22;42288;52.182;21.156;2022-12-07T10:05:34;5.90;99.90
16980;DHT22;42288;52.182;21.156;2022-12-07T10:08:01;5.80;99.80
16980;DHT22;42288;52.182;21.156;2022-12-07T10:10:31;5.80;99.90
16980;DHT22;42288;52.182;21.156;2022-12-07T10:13:17;5.60;99.90
16980;DHT22;42288;52.182;21.156;2022-12-07T10:15:52;5.70;99.90
16980;DHT22;42288;52.182;21.156;2022-12-07T10:21:11;6.00;99.80
16980;DHT22;42288;52.182;21.156;2022-12-07T10:23:41;6.10;99.60
16980;DHT22;42288;52.182;21.156;2022-12-07T10:28:47;6.10;99.10
16980;DHT22;42288;52.182;21.156;2022-12-07T10:31:19;6.10;98.80
16980;DHT22;42288;52.182;21.156;2022-12-07T10:33:57;5.80;99.90
16980;DHT22;42288;52.182;21.156;2022-12-07T10:38:51;6.00;99.50
16980;DHT22;42288;52.182;21.156;2022-12-07T10:41:17;6.10;99.20
16980;DHT22;42288;52.182;21.156;2022-12-07T10:43:49;6.20;98.90
16980;DHT22;42288;52.182;21.156;2022-12-07T10:49:15;6.00;99.00
16980;DHT22;42288;52.182;21.156;2022-12-07T10:51:56;6.00;98.90
16980;DHT22;42288;52.182;21.156;2022-12-07T10:54:31;6.00;99.40
16980;DHT22;42288;52.182;21.156;2022-12-07T11:02:36;5.90;98.20
16980;DHT22;42288;52.182;21.156;2022-12-07T11:05:11;5.80;98.70
16980;DHT22;42288;52.182;21.156;2022-12-07T11:08:13;5.80;98.60
16980;DHT22;42288;52.182;21.156;2022-12-07T11:13:51;5.80;98.50
16980;DHT22;42288;52.182;21.156;2022-12-07T11:16:30;5.90;98.40
16980;DHT22;42288;52.182;21.156;2022-12-07T11:19:31;5.80;98.50
16980;DHT22;42288;52.182;21.156;2022-12-07T11:21:58;5.70;98.80
16980;DHT22;42288;52.182;21.156;2022-12-07T11:30:24;5.80;98.50
16980;DHT22;42288;52.182;21.156;2022-12-07T11:33:20;6.00;98.40
16980;DHT22;42288;52.182;21.156;2022-12-07T11:36:02;5.70;99.10
16980;DHT22;42288;52.182;21.156;2022-12-07T11:38:37;5.80;98.80
16980;DHT22;42288;52.182;21.156;2022-12-07T11:41:06;5.80;99.30
16980;DHT22;42288;52.182;21.156;2022-12-07T11:44:06;5.90;99.30
16980;DHT22;42288;52.182;21.156;2022-12-07T11:46:56;5.80;98.90
16980;DHT22;42288;52.182;21.156;2022-12-07T11:49:33;5.80;98.90
16980;DHT22;42288;52.182;21.156;2022-12-07T11:52:03;5.90;98.70
16980;DHT22;42288;52.182;21.156;2022-12-07T11:54:35;6.10;98.50
16980;DHT22;42288;52.182;21.156;2022-12-07T11:57:12;5.90;98.10
16980;DHT22;42288;52.182;21.156;2022-12-07T11:59:43;6.00;98.20
16980;DHT22;42288;52.182;21.156;2022-12-07T12:02:16;6.10;98.10
16980;DHT22;42288;52.182;21.156;2022-12-07T12:07:26;6.10;98.40
16980;DHT22;42288;52.182;21.156;2022-12-07T12:10:02;5.70;98.20
16980;DHT22;42288;52.182;21.156;2022-12-07T12:20:47;6.10;98.40
16980;DHT22;42288;52.182;21.156;2022-12-07T12:23:45;6.30;98.20
16980;DHT22;42288;52.182;21.156;2022-12-07T12:26:24;6.20;98.50
16980;DHT22;42288;52.182;21.156;2022-12-07T12:33:52;5.70;99.90
16980;DHT22;42288;52.182;21.156;2022-12-07T12:36:22;5.70;99.90
16980;DHT22;42288;52.182;21.156;2022-12-07T12:46:54;5.40;99.90
16980;DHT22;42288;52.182;21.156;2022-12-07T12:56:55;5.50;99.90
16980;DHT22;42288;52.182;21.156;2022-12-07T12:59:34;5.30;99.90
16980;DHT22;42288;52.182;21.156;2022-12-07T13:02:27;5.40;99.90
16980;DHT22;42288;52.182;21.156;2022-12-07T13:21:02;5.10;99.90
16980;DHT22;42288;52.182;21.156;2022-12-07T13:26:36;5.30;99.90
16980;DHT22;42288;52.182;21.156;2022-12-07T13:29:11;5.30;99.90
16980;DHT22;42288;52.182;21.156;2022-12-07T13:31:55;5.20;99.90
16980;DHT22;42288;52.182;21.156;2022-12-07T13:34:29;5.20;99.90
16980;DHT22;42288;52.182;21.156;2022-12-07T13:36:55;5.20;99.90
16980;DHT22;42288;52.182;21.156;2022-12-07T13:39:23;5.10;99.90
16980;DHT22;42288;52.182;21.156;2022-12-07T13:42:06;5.30;99.90
16980;DHT22;42288;52.182;21.156;2022-12-07T13:44:34;5.20;99.90
16980;DHT22;42288;52.182;21.156;2022-12-07T13:49:37;5.30;99.90
16980;DHT22;42288;52.182;21.156;2022-12-07T13:52:27;5.30;99.90
16980;DHT22;42288;52.182;21.156;2022-12-07T13:55:14;5.20;99.90
16980;DHT22;42288;52.182;21.156;2022-12-07T13:57:40;5.10;99.90
16980;DHT22;42288;52.182;21.156;2022-12-07T14:00:15;5.40;99.90
16980;DHT22;42288;52.182;21.156;2022-12-07T14:03:01;5.40;99.90
16980;DHT22;42288;52.182;21.156;2022-12-07T14:05:29;5.30;99.90
16980;DHT22;42288;52.182;21.156;2022-12-07T14:08:00;5.30;99.90
16980;DHT22;42288;52.182;21.156;2022-12-07T14:10:54;5.10;99.90
16980;DHT22;42288;52.182;21.156;2022-12-07T14:13:45;5.10;99.90
16980;DHT22;42288;52.182;21.156;2022-12-07T14:16:25;5.30;99.90
16980;DHT22;42288;52.182;21.156;2022-12-07T14:18:53;5.30;99.90
16980;DHT22;42288;52.182;21.156;2022-12-07T14:21:22;5.30;99.90
16980;DHT22;42288;52.182;21.156;2022-12-07T14:26:35;5.00;99.90
16980;DHT22;42288;52.182;21.156;2022-12-07T14:31:44;4.90;99.90
16980;DHT22;42288;52.182;21.156;2022-12-07T14:34:12;5.00;99.90
16980;DHT22;42288;52.182;21.156;2022-12-07T14:36:37;5.20;99.90
16980;DHT22;42288;52.182;21.156;2022-12-07T14:39:03;5.00;99.90
16980;DHT22;42288;52.182;21.156;2022-12-07T14:41:29;5.10;99.90
16980;DHT22;42288;52.182;21.156;2022-12-07T14:44:13;5.20;99.90
16980;DHT22;42288;52.182;21.156;2022-12-07T14:46:38;5.20;99.90
16980;DHT22;42288;52.182;21.156;2022-12-07T14:49:04;5.00;99.90
16980;DHT22;42288;52.182;21.156;2022-12-07T14:51:30;4.90;99.90
16980;DHT22;42288;52.182;21.156;2022-12-07T14:53:56;5.00;99.90
16980;DHT22;42288;52.182;21.156;2022-12-07T14:56:21;4.90;99.90
16980;DHT22;42288;52.182;21.156;2022-12-07T14:58:47;4.80;99.90
16980;DHT22;42288;52.182;21.156;2022-12-07T15:01:15;4.60;99.90
16980;DHT22;42288;52.182;21.156;2022-12-07T15:03:40;4.70;99.90
16980;DHT22;42288;52.182;21.156;2022-12-07T15:06:06;4.70;99.90
16980;DHT22;42288;52.182;21.156;2022-12-07T15:08:32;4.30;99.90
16980;DHT22;42288;52.182;21.156;2022-12-07T15:10:58;4.20;99.90
16980;DHT22;42288;52.182;21.156;2022-12-07T15:13:23;4.30;99.90
16980;DHT22;42288;52.182;21.156;2022-12-07T15:16:10;4.40;99.90
16980;DHT22;42288;52.182;21.156;2022-12-07T15:18:37;4.20;99.90
16980;DHT22;42288;52.182;21.156;2022-12-07T15:21:02;4.20;99.90
16980;DHT22;42288;52.182;21.156;2022-12-07T15:23:28;4.20;99.90
16980;DHT22;42288;52.182;21.156;2022-12-07T15:25:53;4.20;99.90
16980;DHT22;42288;52.182;21.156;2022-12-07T15:28:19;4.20;99.90
16980;DHT22;42288;52.182;21.156;2022-12-07T15:30:44;4.30;99.90
16980;DHT22;42288;52.182;21.156;2022-12-07T15:33:12;4.20;99.90
16980;DHT22;42288;52.182;21.156;2022-12-07T15:35:42;4.00;99.90
16980;DHT22;42288;52.182;21.156;2022-12-07T15:38:08;4.00;99.90
16980;DHT22;42288;52.182;21.156;2022-12-07T15:40:33;4.00;99.90
16980;DHT22;42288;52.182;21.156;2022-12-07T15:43:00;4.20;99.90
16980;DHT22;42288;52.182;21.156;2022-12-07T15:45:26;4.10;99.90
16980;DHT22;42288;52.182;21.156;2022-12-07T15:47:51;4.20;99.90
16980;DHT22;42288;52.182;21.156;2022-12-07T15:50:17;4.10;99.90
16980;DHT22;42288;52.182;21.156;2022-12-07T15:52:43;4.10;99.90
16980;DHT22;42288;52.182;21.156;2022-12-07T15:55:11;4.20;99.90
16980;DHT22;42288;52.182;21.156;2022-12-07T15:57:39;4.00;99.90
16980;DHT22;42288;52.182;21.156;2022-12-07T16:00:07;4.00;99.90
16980;DHT22;42288;52.182;21.156;2022-12-07T16:02:34;4.10;99.90
16980;DHT22;42288;52.182;21.156;2022-12-07T16:04:59;4.20;99.90
16980;DHT22;42288;52.182;21.156;2022-12-07T16:07:25;4.20;99.90
16980;DHT22;42288;52.182;21.156;2022-12-07T16:09:50;4.20;99.90
16980;DHT22;42288;52.182;21.156;2022-12-07T16:12:16;4.20;99.90
16980;DHT22;42288;52.182;21.156;2022-12-07T16:14:42;4.10;99.90
16980;DHT22;42288;52.182;21.156;2022-12-07T16:17:09;4.10;99.90
16980;DHT22;42288;52.182;21.156;2022-12-07T16:19:35;4.10;99.90
16980;DHT22;42288;52.182;21.156;2022-12-07T16:22:01;4.20;99.90
16980;DHT22;42288;52.182;21.156;2022-12-07T16:24:27;4.40;99.90
16980;DHT22;42288;52.182;21.156;2022-12-07T16:26:53;4.50;99.90
16980;DHT22;42288;52.182;21.156;2022-12-07T16:29:20;4.40;99.90
16980;DHT22;42288;52.182;21.156;2022-12-07T16:31:47;4.50;99.90
16980;DHT22;42288;52.182;21.156;2022-12-07T16:34:12;4.50;99.90
16980;DHT22;42288;52.182;21.156;2022-12-07T16:36:38;4.70;99.90
16980;DHT22;42288;52.182;21.156;2022-12-07T16:39:04;4.40;99.90
16980;DHT22;42288;52.182;21.156;2022-12-07T16:41:30;4.30;99.90
16980;DHT22;42288;52.182;21.156;2022-12-07T16:43:56;4.40;99.90
16980;DHT22;42288;52.182;21.156;2022-12-07T16:46:21;4.30;99.90
16980;DHT22;42288;52.182;21.156;2022-12-07T16:48:47;4.20;99.90
16980;DHT22;42288;52.182;21.156;2022-12-07T16:51:13;4.00;99.90
16980;DHT22;42288;52.182;21.156;2022-12-07T16:53:41;3.90;99.90
16980;DHT22;42288;52.182;21.156;2022-12-07T16:56:12;3.90;99.90
16980;DHT22;42288;52.182;21.156;2022-12-07T16:58:38;3.90;99.90
16980;DHT22;42288;52.182;21.156;2022-12-07T17:01:15;4.00;99.90
16980;DHT22;42288;52.182;21.156;2022-12-07T17:03:41;3.80;99.90
16980;DHT22;42288;52.182;21.156;2022-12-07T17:06:15;4.00;99.90
16980;DHT22;42288;52.182;21.156;2022-12-07T17:08:41;4.10;99.90
16980;DHT22;42288;52.182;21.156;2022-12-07T17:11:15;4.20;99.90
16980;DHT22;42288;52.182;21.156;2022-12-07T17:13:42;4.00;99.90
16980;DHT22;42288;52.182;21.156;2022-12-07T17:16:27;4.00;99.90
16980;DHT22;42288;52.182;21.156;2022-12-07T17:18:52;4.00;99.90
16980;DHT22;42288;52.182;21.156;2022-12-07T17:21:18;4.30;99.90
16980;DHT22;42288;52.182;21.156;2022-12-07T17:23:44;4.30;99.90
16980;DHT22;42288;52.182;21.156;2022-12-07T17:26:24;4.10;99.90
16980;DHT22;42288;52.182;21.156;2022-12-07T17:28:50;4.10;99.90
16980;DHT22;42288;52.182;21.156;2022-12-07T17:31:17;4.00;99.90